Heber Springs, Arkansas
Current Conditions -  °F | °C
As of 11:55 AM on Saturday 20 Dec 2014 (Local Time) from KCCA Reporting Station
Haze Haze  
Wind Chill: 45°   Ceiling: 2300
Heat Index: 45°   Visibility: 5mi
Dew Point: 37°   Wind: 0mph
Humidity: 76%   Direction: NA
Pressure: 30.26"   Gusts: NA
Location:  35.49°N, 92.04°W
Report Text: KCCA 201755Z AUTO 00000KT 5SM HZ OVC023 07/03 A3026 RMK AO2
Loading
Personal Weather Stations






























Interactive Weather Map New forecast layout! Learn more

10-Day Weather Forecast

Advertisements
Track Severe Weather on mobile